Time;durP1;ratioP1;P1;durP2;ratioP2;P2;SDS_P1;SDS_P2;PMS_P1;PMS_P2;Temp;Humidity;BMP_temperature;BMP_pressure;BME280_temperature;BME280_humidity;BME280_pressure;Samples;Min_cycle;Max_cycle;Signal;HPM_P1;HPM_P2
2022/05/17 00:00:48;;;;;;;9.50;4.43;;;;;;;20.86;65.42;99162.81;5138559;27;20265;-90
2022/05/17 00:03:14;;;;;;;8.10;3.43;;;;;;;20.86;64.77;99163.63;5156694;27;20176;-88
2022/05/17 00:05:41;;;;;;;7.27;4.23;;;;;;;20.75;64.75;99163.81;5156783;27;20178;-89
2022/05/17 00:08:07;;;;;;;6.70;3.70;;;;;;;20.68;64.58;99165.34;5156559;27;20217;-89
2022/05/17 00:10:33;;;;;;;4.80;3.10;;;;;;;20.70;64.13;99164.22;5156877;27;20174;-89
2022/05/17 00:12:58;;;;;;;6.57;2.97;;;;;;;20.63;64.47;99168.44;5156819;27;20185;-90
2022/05/17 00:15:24;;;;;;;7.30;4.50;;;;;;;20.61;64.26;99170.41;5138289;27;20186;-88
2022/05/17 00:17:52;;;;;;;7.73;3.30;;;;;;;20.56;64.48;99171.81;5156481;27;20174;-90
2022/05/17 00:20:17;;;;;;;5.57;3.40;;;;;;;20.46;64.66;99163.00;5156439;27;20166;-90
2022/05/17 00:22:43;;;;;;;5.77;3.40;;;;;;;20.30;65.45;99160.94;5156902;27;20237;-89
2022/05/17 00:25:12;;;;;;;7.33;4.33;;;;;;;20.19;65.62;99159.22;5156277;27;20185;-89
2022/05/17 00:27:37;;;;;;;11.60;3.67;;;;;;;20.19;65.39;99163.69;5137962;27;20194;-88
2022/05/17 00:30:07;;;;;;;10.37;3.90;;;;;;;20.06;66.25;99163.97;5156782;27;20230;-90
2022/05/17 00:32:32;;;;;;;5.17;3.30;;;;;;;20.05;65.62;99156.13;5156086;27;20536;-90
2022/05/17 00:34:58;;;;;;;4.97;3.07;;;;;;;20.06;65.26;99153.34;5137147;27;20166;-89
2022/05/17 00:37:23;;;;;;;6.27;2.80;;;;;;;20.04;65.21;99152.66;5156056;27;20177;-90
2022/05/17 00:39:49;;;;;;;4.53;2.90;;;;;;;20.03;64.75;99156.28;5137804;27;20163;-90
2022/05/17 00:42:14;;;;;;;7.17;3.57;;;;;;;20.09;64.57;99162.84;5156241;27;20182;-90
2022/05/17 00:44:43;;;;;;;6.17;3.87;;;;;;;20.16;64.35;99164.81;5155936;27;20185;-90
2022/05/17 00:47:14;;;;;;;5.37;2.97;;;;;;;20.14;64.62;99169.44;5155804;27;20247;-90
2022/05/17 00:49:52;;;;;;;9.53;4.37;;;;;;;19.99;64.84;99160.22;5156210;27;20155;-90
2022/05/17 00:52:23;;;;;;;5.13;3.23;;;;;;;19.94;65.44;99165.06;5156377;27;20150;-90
2022/05/17 00:54:53;;;;;;;7.20;4.10;;;;;;;19.81;65.29;99156.53;5137516;27;20613;-89
2022/05/17 00:57:18;;;;;;;6.50;3.63;;;;;;;19.75;65.53;99159.75;5137472;27;20234;-89
2022/05/17 00:59:44;;;;;;;5.10;3.00;;;;;;;19.63;66.05;99157.34;5155619;27;20167;-89
2022/05/17 01:02:10;;;;;;;5.00;3.23;;;;;;;19.58;66.53;99157.75;5155836;27;20592;-90
2022/05/17 01:04:38;;;;;;;6.27;3.73;;;;;;;19.60;65.95;99155.81;5155520;27;20181;-89
2022/05/17 01:07:25;;;;;;;6.60;3.47;;;;;;;19.55;65.84;99164.16;5155417;27;20255;-90
2022/05/17 01:09:51;;;;;;;5.93;3.77;;;;;;;19.49;66.31;99158.56;5155382;27;20170;-90
2022/05/17 01:12:16;;;;;;;7.60;4.17;;;;;;;19.44;66.28;99148.31;5155421;27;20665;-90
2022/05/17 01:14:57;;;;;;;4.93;3.23;;;;;;;19.43;66.18;99143.16;5155361;27;20171;-90
2022/05/17 01:17:32;;;;;;;5.10;3.10;;;;;;;19.42;65.67;99152.09;5155648;27;20173;-90
2022/05/17 01:19:59;;;;;;;7.37;3.80;;;;;;;19.49;65.44;99147.94;5155635;27;20154;-90
2022/05/17 01:22:25;;;;;;;5.23;3.43;;;;;;;19.34;65.83;99144.78;5155271;27;20166;-89
2022/05/17 01:24:51;;;;;;;5.73;3.40;;;;;;;19.31;65.65;99144.22;5155203;27;20234;-89
2022/05/17 01:27:24;;;;;;;5.37;3.40;;;;;;;19.19;65.83;99146.13;5155132;27;20174;-90
2022/05/17 01:29:50;;;;;;;5.80;3.30;;;;;;;19.05;66.76;99143.81;5155525;27;20202;-89
2022/05/17 01:32:16;;;;;;;5.50;2.90;;;;;;;19.00;66.81;99146.88;5155400;27;20209;-89
2022/05/17 01:34:43;;;;;;;5.97;3.50;;;;;;;18.95;66.86;99143.78;5155645;27;20189;-89
2022/05/17 01:37:10;;;;;;;4.73;3.23;;;;;;;18.76;67.50;99143.69;5155012;27;20182;-89
2022/05/17 01:39:35;;;;;;;7.27;4.03;;;;;;;18.72;67.69;99144.09;5155057;27;20178;-89
2022/05/17 01:42:02;;;;;;;6.50;3.43;;;;;;;18.78;67.02;99138.25;5136811;27;20706;-89
2022/05/17 01:44:27;;;;;;;4.33;2.93;;;;;;;18.93;66.26;99150.22;5154838;27;20186;-89
2022/05/17 01:46:53;;;;;;;5.50;3.70;;;;;;;18.88;66.04;99141.81;5155103;27;20174;-89
2022/05/17 01:49:18;;;;;;;8.27;3.90;;;;;;;18.78;66.21;99136.44;5155084;27;20560;-89
2022/05/17 01:51:44;;;;;;;6.23;2.93;;;;;;;18.85;66.15;99142.06;5154896;27;20175;-89
2022/05/17 01:54:09;;;;;;;5.47;3.40;;;;;;;18.79;66.12;99143.44;5154896;27;20182;-89
2022/05/17 01:56:35;;;;;;;5.50;3.10;;;;;;;18.94;65.58;99144.78;5155429;27;20173;-89
2022/05/17 01:59:01;;;;;;;6.93;3.93;;;;;;;19.06;65.05;99142.84;5154815;27;20162;-89
2022/05/17 02:01:27;;;;;;;5.50;3.40;;;;;;;19.09;65.19;99133.78;5136576;27;20186;-89
2022/05/17 02:03:52;;;;;;;9.57;4.30;;;;;;;19.09;65.45;99134.63;5154832;27;20669;-90
2022/05/17 02:06:18;;;;;;;5.43;3.30;;;;;;;18.86;66.55;99141.94;5136545;27;20181;-89
2022/05/17 02:08:44;;;;;;;6.43;4.10;;;;;;;18.62;68.21;99136.09;5154644;27;20194;-89
2022/05/17 02:11:09;;;;;;;7.57;3.90;;;;;;;18.52;68.83;99144.97;5154744;27;20620;-90
2022/05/17 02:13:35;;;;;;;8.13;3.77;;;;;;;18.41;68.66;99148.50;5154727;27;20176;-90
2022/05/17 02:16:05;;;;;;;7.70;3.97;;;;;;;18.35;68.38;99146.34;5154679;27;20181;-89
2022/05/17 02:18:31;;;;;;;5.50;3.20;;;;;;;18.35;67.87;99141.03;5154945;27;20191;-90
2022/05/17 02:20:57;;;;;;;5.33;3.30;;;;;;;18.43;67.52;99151.84;5136400;27;20569;-90
2022/05/17 02:23:22;;;;;;;5.60;3.30;;;;;;;18.44;67.34;99148.22;5155115;27;20201;-89
2022/05/17 02:25:47;;;;;;;5.07;3.17;;;;;;;18.46;67.46;99145.44;5154604;27;20173;-90
2022/05/17 02:28:14;;;;;;;7.70;3.43;;;;;;;18.36;67.69;99140.06;5154533;27;20258;-91
2022/05/17 02:30:41;;;;;;;6.10;3.30;;;;;;;18.34;67.45;99140.19;5154579;27;20562;-90
2022/05/17 02:33:07;;;;;;;5.43;3.13;;;;;;;18.31;67.65;99140.47;5154526;27;20531;-89
2022/05/17 02:35:33;;;;;;;6.00;3.23;;;;;;;18.25;67.92;99127.69;5154481;27;20684;-90
2022/05/17 02:37:59;;;;;;;7.83;4.00;;;;;;;18.34;67.58;99136.72;5154466;27;20162;-89
2022/05/17 02:40:25;;;;;;;6.37;3.23;;;;;;;18.46;66.18;99133.00;5154364;27;20203;-90
2022/05/17 02:42:50;;;;;;;7.00;3.30;;;;;;;18.51;65.76;99136.16;5136185;27;20210;-89
2022/05/17 02:45:16;;;;;;;6.63;3.47;;;;;;;18.39;66.14;99131.84;5154382;27;20529;-90
2022/05/17 02:47:41;;;;;;;6.10;3.87;;;;;;;18.24;67.15;99130.47;5136090;27;20209;-89
2022/05/17 02:50:09;;;;;;;6.20;3.30;;;;;;;18.14;67.56;99135.72;5154603;27;20174;-90
2022/05/17 02:52:35;;;;;;;4.63;3.03;;;;;;;18.10;67.80;99129.00;5136095;27;20233;-89
2022/05/17 02:55:00;;;;;;;5.80;3.13;;;;;;;18.09;67.76;99127.31;5154291;27;20201;-89
2022/05/17 02:57:25;;;;;;;12.27;4.10;;;;;;;17.86;69.32;99131.03;5155110;27;20167;-89
2022/05/17 02:59:51;;;;;;;5.97;3.43;;;;;;;17.83;69.90;99139.22;5158035;27;20170;-89
2022/05/17 03:02:16;;;;;;;4.97;3.20;;;;;;;17.84;69.82;99132.13;5139716;27;20186;-89
2022/05/17 03:04:42;;;;;;;5.87;3.23;;;;;;;17.86;69.57;99143.44;5139705;27;20174;-89
2022/05/17 03:07:07;;;;;;;6.97;3.83;;;;;;;17.93;69.48;99139.31;5157798;27;20170;-89
2022/05/17 03:09:32;;;;;;;7.07;3.30;;;;;;;18.02;68.54;99143.84;5157882;27;20170;-89
2022/05/17 03:11:58;;;;;;;5.00;3.20;;;;;;;18.20;67.02;99137.88;5157819;27;20206;-89
2022/05/17 03:14:23;;;;;;;6.30;3.90;;;;;;;18.26;66.81;99139.97;5157784;27;20170;-89
2022/05/17 03:16:49;;;;;;;4.73;2.87;;;;;;;18.21;66.50;99146.66;5157729;27;20625;-89
2022/05/17 03:19:14;;;;;;;5.13;3.17;;;;;;;18.27;66.61;99148.78;5157608;27;20598;-90
2022/05/17 03:21:40;;;;;;;6.87;3.67;;;;;;;18.27;66.52;99143.47;5157595;27;20188;-90
2022/05/17 03:24:06;;;;;;;6.63;3.27;;;;;;;18.16;67.08;99149.69;5157801;27;20265;-89
2022/05/17 03:26:32;;;;;;;5.37;3.00;;;;;;;18.10;67.44;99150.22;5157485;27;20178;-90
2022/05/17 03:28:58;;;;;;;4.27;2.67;;;;;;;18.07;67.54;99149.63;5157355;27;20684;-89
2022/05/17 03:31:25;;;;;;;8.83;3.50;;;;;;;18.15;67.65;99141.88;5157375;27;20230;-90
2022/05/17 03:33:51;;;;;;;4.70;3.17;;;;;;;18.16;67.80;99154.19;5157353;27;20174;-90
2022/05/17 03:36:16;;;;;;;5.03;3.27;;;;;;;18.25;67.53;99154.25;5157293;27;20171;-89
2022/05/17 03:38:42;;;;;;;5.63;2.80;;;;;;;18.27;67.64;99159.41;5139289;27;20194;-89
2022/05/17 03:41:07;;;;;;;6.00;3.10;;;;;;;18.13;68.11;99157.91;5138986;27;20326;-89
2022/05/17 03:43:33;;;;;;;4.77;2.80;;;;;;;18.05;68.73;99157.72;5157036;27;20222;-90
2022/05/17 03:45:59;;;;;;;5.07;3.47;;;;;;;18.04;69.29;99155.19;5157455;27;20185;-90
2022/05/17 03:48:27;;;;;;;5.60;3.27;;;;;;;18.09;69.57;99158.28;5157311;27;20202;-90
2022/05/17 03:50:53;;;;;;;5.80;3.47;;;;;;;18.14;69.63;99161.41;5157085;27;20171;-90
2022/05/17 03:53:18;;;;;;;6.93;3.93;;;;;;;18.34;69.27;99157.94;5138699;27;20178;-89
2022/05/17 03:55:44;;;;;;;7.03;4.33;;;;;;;18.20;70.00;99160.91;5157198;27;20170;-89
2022/05/17 03:58:10;;;;;;;5.97;3.57;;;;;;;18.08;70.96;99162.75;5157162;27;20257;-90
2022/05/17 04:00:36;;;;;;;6.50;3.73;;;;;;;18.12;71.17;99163.34;5138597;27;20175;-89
2022/05/17 04:03:02;;;;;;;6.60;3.77;;;;;;;18.20;71.30;99160.91;5156820;27;20170;-89
2022/05/17 04:05:28;;;;;;;6.67;3.90;;;;;;;18.32;71.19;99173.13;5156737;27;20178;-90
2022/05/17 04:07:53;;;;;;;5.93;4.00;;;;;;;18.34;71.62;99176.53;5156891;27;20205;-89
2022/05/17 04:10:19;;;;;;;6.47;3.73;;;;;;;18.36;71.77;99172.78;5155760;27;20182;-90
2022/05/17 04:12:44;;;;;;;9.33;3.87;;;;;;;18.41;71.77;99177.69;5156624;27;20629;-89
2022/05/17 04:15:15;;;;;;;6.43;3.73;;;;;;;18.50;71.67;99178.75;5138254;27;20178;-90
2022/05/17 04:17:41;;;;;;;7.10;3.50;;;;;;;18.76;70.42;99177.41;5156799;27;20585;-90
2022/05/17 04:20:07;;;;;;;8.23;3.97;;;;;;;18.74;70.24;99185.47;5156421;27;20253;-89
2022/05/17 04:22:32;;;;;;;6.30;3.67;;;;;;;18.68;69.76;99190.47;5156348;27;20673;-89
2022/05/17 04:24:58;;;;;;;6.40;3.90;;;;;;;18.77;69.63;99185.22;5156361;27;20178;-90
2022/05/17 04:27:25;;;;;;;5.90;3.77;;;;;;;18.85;69.56;99174.78;5137955;27;20223;-89
2022/05/17 04:29:51;;;;;;;7.93;4.60;;;;;;;18.97;69.09;99184.34;5156221;27;20185;-90
2022/05/17 04:32:17;;;;;;;5.73;3.77;;;;;;;19.02;69.20;99182.13;5137964;27;20182;-89
2022/05/17 04:34:43;;;;;;;6.10;3.50;;;;;;;19.25;68.78;99185.47;5156143;27;20178;-89
2022/05/17 04:37:08;;;;;;;6.63;4.03;;;;;;;19.40;67.67;99184.16;5137814;27;20182;-90
2022/05/17 04:39:34;;;;;;;6.73;3.63;;;;;;;19.57;67.63;99177.34;5137822;27;20201;-89
2022/05/17 04:42:00;;;;;;;8.07;3.23;;;;;;;19.64;67.56;99170.50;5156278;27;20263;-90
2022/05/17 04:44:26;;;;;;;9.10;3.80;;;;;;;19.70;68.00;99169.97;5137596;27;20629;-90
2022/05/17 04:46:51;;;;;;;6.67;3.53;;;;;;;19.78;68.51;99169.28;5155936;27;20588;-89
2022/05/17 04:49:17;;;;;;;6.10;3.60;;;;;;;19.88;68.75;99170.97;5155815;27;20714;-89
2022/05/17 04:51:43;;;;;;;7.13;3.33;;;;;;;19.98;68.92;99166.50;5137625;27;20633;-89
2022/05/17 04:54:08;;;;;;;6.50;3.47;;;;;;;20.14;68.27;99166.78;5155765;27;20632;-89
2022/05/17 04:56:34;;;;;;;9.40;4.87;;;;;;;20.33;67.31;99173.13;5155707;27;20628;-89
2022/05/17 04:59:01;;;;;;;6.93;3.73;;;;;;;20.39;67.64;99178.69;5137429;27;20572;-89
2022/05/17 05:01:26;;;;;;;6.77;3.90;;;;;;;20.35;67.59;99173.81;5155636;27;20181;-89
2022/05/17 05:03:52;;;;;;;8.87;5.23;;;;;;;20.34;68.01;99174.78;5155578;27;20261;-89
2022/05/17 05:06:18;;;;;;;16.07;4.57;;;;;;;20.62;67.44;99181.91;5155780;27;20214;-90
2022/05/17 05:08:43;;;;;;;9.37;4.70;;;;;;;20.95;66.50;99178.75;5155679;27;20224;-90
2022/05/17 05:11:09;;;;;;;7.23;3.97;;;;;;;21.28;65.34;99177.38;5137269;27;20189;-89
2022/05/17 05:13:34;;;;;;;7.57;4.20;;;;;;;21.57;62.96;99178.09;5137197;27;20184;-90
2022/05/17 05:16:00;;;;;;;5.63;3.13;;;;;;;21.80;62.48;99175.88;5155382;27;20174;-89
2022/05/17 05:18:25;;;;;;;8.47;4.07;;;;;;;22.14;61.66;99171.56;5155335;27;20540;-90
2022/05/17 05:21:01;;;;;;;6.23;3.73;;;;;;;22.58;59.90;99170.63;5136779;27;20261;-89
2022/05/17 05:23:26;;;;;;;5.90;3.60;;;;;;;22.98;57.96;99166.56;5155287;27;20169;-89
2022/05/17 05:25:58;;;;;;;6.20;4.10;;;;;;;23.52;56.48;99162.69;5155491;27;20170;-89
2022/05/17 05:28:24;;;;;;;6.07;3.83;;;;;;;23.95;55.26;99161.63;5155150;27;20182;-88
2022/05/17 05:30:49;;;;;;;4.93;3.20;;;;;;;23.96;54.33;99158.78;5155416;27;20185;-88
2022/05/17 05:33:15;;;;;;;6.33;3.30;;;;;;;23.63;55.42;99165.91;5155377;27;20703;-88
2022/05/17 05:35:40;;;;;;;6.20;3.53;;;;;;;23.89;55.81;99154.25;5136867;27;20174;-88
2022/05/17 05:38:06;;;;;;;5.67;3.40;;;;;;;23.92;55.01;99167.31;5155079;27;20170;-88
2022/05/17 05:40:31;;;;;;;5.03;3.20;;;;;;;24.12;55.40;99160.69;5136826;27;20174;-88
2022/05/17 05:42:57;;;;;;;5.63;2.97;;;;;;;24.17;54.91;99161.84;5154907;27;20249;-88
2022/05/17 05:45:22;;;;;;;5.93;2.97;;;;;;;24.05;54.04;99159.63;5136711;27;20271;-89
2022/05/17 05:47:48;;;;;;;8.53;3.80;;;;;;;24.22;53.70;99158.66;5155435;27;20520;-88
2022/05/17 05:50:13;;;;;;;5.27;3.23;;;;;;;24.43;54.06;99165.22;5155236;27;20175;-88
2022/05/17 05:52:39;;;;;;;11.03;4.93;;;;;;;24.37;53.73;99167.75;5154898;27;20206;-89
2022/05/17 05:55:06;;;;;;;14.27;6.00;;;;;;;24.39;54.59;99163.06;5154873;27;20176;-88
2022/05/17 05:57:31;;;;;;;7.57;3.57;;;;;;;24.48;52.83;99170.06;5154779;27;20192;-89
2022/05/17 05:59:58;;;;;;;14.27;6.03;;;;;;;24.57;53.17;99166.41;5154819;27;20609;-89
2022/05/17 06:02:24;;;;;;;8.87;4.33;;;;;;;24.61;53.93;99173.06;5154788;27;20610;-88
2022/05/17 06:04:49;;;;;;;9.53;5.20;;;;;;;24.68;54.79;99166.06;5154782;27;20198;-89
2022/05/17 06:07:15;;;;;;;6.83;3.03;;;;;;;24.65;54.62;99171.75;5136758;27;20221;-90
2022/05/17 06:09:40;;;;;;;6.73;3.93;;;;;;;24.51;54.22;99176.94;5155033;27;20246;-88
2022/05/17 06:12:06;;;;;;;96.77;25.73;;;;;;;24.78;54.41;99174.78;5154706;27;20551;-89
2022/05/17 06:14:31;;;;;;;96.40;30.53;;;;;;;24.79;51.39;99171.06;5154716;27;20182;-88
2022/05/17 06:16:57;;;;;;;35.13;14.17;;;;;;;24.98;50.28;99170.72;5154506;27;20185;-89
2022/05/17 06:19:23;;;;;;;6.53;3.90;;;;;;;25.18;49.07;99162.28;5154170;27;20178;-89
2022/05/17 06:21:50;;;;;;;6.27;3.43;;;;;;;25.35;48.68;99167.41;5154868;27;20186;-89
2022/05/17 06:24:16;;;;;;;5.03;3.30;;;;;;;25.46;49.17;99168.94;5154552;27;20182;-90
2022/05/17 06:26:42;;;;;;;4.93;3.07;;;;;;;25.57;49.13;99168.53;5154205;27;20598;-90
2022/05/17 06:29:08;;;;;;;5.97;3.00;;;;;;;25.90;49.20;99170.03;5154766;27;20277;-89
2022/05/17 06:31:34;;;;;;;8.33;3.07;;;;;;;26.50;47.54;99172.81;5154505;27;20265;-88
2022/05/17 06:33:59;;;;;;;6.70;3.10;;;;;;;26.81;45.26;99165.50;5157937;27;20170;-88
2022/05/17 06:36:25;;;;;;;3.93;2.63;;;;;;;27.37;45.13;99161.38;5158457;27;20265;-89
2022/05/17 06:38:50;;;;;;;8.83;3.80;;;;;;;27.77;44.12;99165.44;5158427;27;20178;-89
2022/05/17 06:41:16;;;;;;;7.43;3.08;;;;;;;27.87;43.77;99159.75;5158678;27;20242;-88
2022/05/17 06:43:42;;;;;;;3.78;2.58;;;;;;;28.28;43.51;99163.53;5140008;27;20186;-90
2022/05/17 06:46:07;;;;;;;8.13;3.47;;;;;;;28.55;42.22;99157.34;5158255;27;20203;-89
2022/05/17 06:48:33;;;;;;;5.10;2.83;;;;;;;28.75;40.57;99157.53;5158404;27;20529;-90
2022/05/17 06:51:07;;;;;;;4.60;2.50;;;;;;;28.88;40.82;99157.63;5158147;27;20178;-90
2022/05/17 06:53:32;;;;;;;5.15;3.10;;;;;;;29.02;40.47;99155.84;5158700;27;20201;-89
2022/05/17 06:55:58;;;;;;;5.18;2.65;;;;;;;29.18;40.73;99153.69;5158375;27;20613;-89
2022/05/17 06:58:25;;;;;;;5.13;2.80;;;;;;;29.34;41.06;99166.06;5158044;27;20253;-89
2022/05/17 07:00:51;;;;;;;7.53;3.05;;;;;;;29.44;40.50;99160.28;5139746;27;20641;-90
2022/05/17 07:03:16;;;;;;;6.78;2.85;;;;;;;29.27;37.88;99158.97;5157939;27;20174;-89
2022/05/17 07:05:42;;;;;;;3.95;2.47;;;;;;;29.46;38.94;99155.50;5157863;27;20654;-91
2022/05/17 07:08:07;;;;;;;5.60;2.33;;;;;;;29.53;38.01;99159.09;5158090;27;20194;-89
2022/05/17 07:13:17;;;;;;;9.18;3.83;;;;;;;29.40;37.64;99151.78;5158391;27;20230;-90
2022/05/17 07:15:46;;;;;;;5.68;3.28;;;;;;;29.45;39.01;99146.59;5139143;27;20190;-90
2022/05/17 07:18:13;;;;;;;6.05;3.08;;;;;;;29.60;40.28;99144.59;5157589;27;20178;-90
2022/05/17 07:20:40;;;;;;;4.28;2.65;;;;;;;29.74;37.20;99142.75;5157754;27;20221;-90
2022/05/17 07:23:06;;;;;;;4.72;2.50;;;;;;;29.91;39.15;99135.97;5157915;27;20178;-90
2022/05/17 07:25:33;;;;;;;4.57;2.47;;;;;;;29.80;38.09;99134.69;5157533;27;20170;-91
2022/05/17 07:27:59;;;;;;;5.40;2.70;;;;;;;29.70;38.94;99133.38;5157468;27;20198;-90
2022/05/17 07:30:25;;;;;;;4.45;2.88;;;;;;;29.71;39.38;99138.59;5157544;27;20174;-91
2022/05/17 07:32:51;;;;;;;5.25;2.65;;;;;;;29.88;38.73;99143.66;5157503;27;20533;-92
2022/05/17 07:35:17;;;;;;;5.53;3.00;;;;;;;30.06;38.58;99135.81;5157581;27;20617;-92
2022/05/17 07:37:42;;;;;;;5.50;2.45;;;;;;;30.20;38.37;99124.81;5157776;27;20162;-91
2022/05/17 07:40:09;;;;;;;5.45;3.13;;;;;;;30.38;38.14;99119.66;5139604;27;20174;-91
2022/05/17 07:42:34;;;;;;;10.80;2.85;;;;;;;30.49;37.19;99122.78;5157248;27;20196;-90
2022/05/17 07:45:00;;;;;;;3.88;2.58;;;;;;;30.52;38.43;99123.19;5138742;27;20215;-91
2022/05/17 07:47:25;;;;;;;6.65;3.22;;;;;;;30.63;36.84;99125.28;5157151;27;20656;-93
2022/05/17 07:49:51;;;;;;;4.38;2.78;;;;;;;30.51;37.13;99128.78;5157703;27;20170;-90
2022/05/17 07:52:16;;;;;;;8.07;3.05;;;;;;;30.53;36.86;99130.25;5139512;27;20177;-91
2022/05/17 07:54:43;;;;;;;5.18;3.05;;;;;;;30.67;36.67;99129.22;5157166;27;20644;-91
2022/05/17 07:57:08;;;;;;;4.43;2.50;;;;;;;30.77;38.27;99131.50;5157296;27;20170;-89
2022/05/17 07:59:34;;;;;;;3.92;2.40;;;;;;;30.72;36.96;99134.84;5157233;27;20250;-90
2022/05/17 08:02:00;;;;;;;4.97;2.67;;;;;;;30.71;38.77;99121.53;5156886;27;20618;-90
2022/05/17 08:04:29;;;;;;;4.15;3.03;;;;;;;30.74;37.30;99119.22;5138594;27;20182;-90
2022/05/17 08:06:56;;;;;;;4.32;3.10;;;;;;;30.87;36.64;99121.09;5156412;27;20537;-91
2022/05/17 08:09:21;;;;;;;6.88;3.08;;;;;;;30.97;36.72;99121.53;5156398;27;20194;-90
2022/05/17 08:11:47;;;;;;;5.05;2.75;;;;;;;30.59;37.53;99117.75;5139254;27;20170;-90
2022/05/17 08:14:12;;;;;;;4.50;3.00;;;;;;;30.69;37.10;99110.06;5138304;27;20206;-92
2022/05/17 08:16:38;;;;;;;6.80;2.70;;;;;;;30.81;36.94;99106.53;5156640;27;20166;-91
2022/05/17 08:19:04;;;;;;;3.95;2.58;;;;;;;30.84;36.71;99111.53;5137820;27;20190;-90
2022/05/17 08:21:29;;;;;;;5.60;2.78;;;;;;;31.21;38.59;99109.16;5156351;27;20256;-90
2022/05/17 08:23:54;;;;;;;6.57;2.85;;;;;;;31.44;37.05;99106.78;5156044;27;20190;-92
2022/05/17 08:29:04;;;;;;;9.77;3.00;;;;;;;31.60;36.80;99103.63;5156990;27;20197;-91
2022/05/17 08:31:29;;;;;;;4.07;2.38;;;;;;;31.63;36.13;99097.75;5138256;27;20166;-91
2022/05/17 08:33:55;;;;;;;7.32;3.15;;;;;;;31.61;36.21;99097.97;5156225;27;20258;-91
2022/05/17 08:36:20;;;;;;;4.20;2.50;;;;;;;31.52;37.44;99098.44;5156235;27;20219;-90
2022/05/17 08:38:49;;;;;;;4.60;2.80;;;;;;;31.96;37.87;99100.28;5137968;27;20166;-91
2022/05/17 08:41:41;;;;;;;3.63;2.33;;;;;;;32.27;35.82;99097.59;5138022;27;20626;-93
2022/05/17 08:44:17;;;;;;;5.50;2.90;;;;;;;32.61;36.76;99096.28;5137981;27;20633;-91
2022/05/17 08:47:01;;;;;;;4.15;2.70;;;;;;;32.57;37.02;99098.63;5156622;27;20241;-91
2022/05/17 08:49:31;;;;;;;4.10;2.60;;;;;;;32.80;35.45;99087.13;5137742;27;20206;-91
2022/05/17 08:52:01;;;;;;;4.05;2.45;;;;;;;32.92;35.00;99088.03;5155881;27;20257;-91
2022/05/17 08:54:30;;;;;;;4.75;2.70;;;;;;;32.63;34.23;99086.88;5155356;27;20167;-90
2022/05/17 08:57:22;;;;;;;4.60;2.95;;;;;;;32.65;33.40;99086.66;5154861;27;20174;-91
2022/05/17 08:59:47;;;;;;;4.25;2.75;;;;;;;32.56;35.08;99079.84;5154632;27;20216;-91
2022/05/17 09:02:21;;;;;;;4.22;2.58;;;;;;;32.75;33.63;99079.66;5155216;27;20202;-91
2022/05/17 09:04:52;;;;;;;5.65;3.05;;;;;;;32.68;33.61;99073.44;5156328;27;20574;-91
2022/05/17 09:07:39;;;;;;;5.95;2.83;;;;;;;32.63;33.62;99077.88;5152473;27;20166;-91
2022/05/17 09:10:14;;;;;;;3.42;2.42;;;;;;;32.54;34.81;99073.81;5152977;27;20582;-91
2022/05/17 09:12:49;;;;;;;10.63;2.63;;;;;;;32.89;34.22;99071.38;5155773;27;20585;-91
2022/05/17 09:15:16;;;;;;;5.43;2.53;;;;;;;32.83;35.13;99059.53;5155275;27;20174;-92
2022/05/17 09:17:43;;;;;;;5.55;2.33;;;;;;;32.96;37.10;99059.38;5136938;27;20640;-91
2022/05/17 09:20:12;;;;;;;5.90;2.70;;;;;;;32.97;35.29;99061.03;5155119;27;20633;-92
2022/05/17 09:22:38;;;;;;;3.95;2.53;;;;;;;33.34;34.94;99067.31;5155447;27;20644;-90
2022/05/17 09:25:20;;;;;;;6.13;2.90;;;;;;;32.92;34.92;99057.34;5155424;27;20176;-91
2022/05/17 09:27:52;;;;;;;5.47;2.67;;;;;;;33.07;35.71;99061.38;5137310;27;20552;-92
2022/05/17 09:30:23;;;;;;;4.00;2.35;;;;;;;33.05;34.25;99059.94;5155350;27;20155;-91
2022/05/17 09:32:59;;;;;;;4.40;2.35;;;;;;;33.22;33.35;99047.41;5136660;27;20197;-91
2022/05/17 09:35:24;;;;;;;5.95;2.72;;;;;;;33.35;34.36;99045.38;5154933;27;20169;-90
2022/05/17 09:37:57;;;;;;;3.85;2.17;;;;;;;33.30;32.41;99039.78;5136835;27;20174;-92
2022/05/17 09:40:26;;;;;;;5.97;2.80;;;;;;;33.31;33.02;99027.00;5155503;27;20169;-91
2022/05/17 09:43:01;;;;;;;5.05;2.45;;;;;;;33.73;33.56;99036.06;5136554;27;20258;-92
2022/05/17 09:45:58;;;;;;;4.97;2.03;;;;;;;34.16;31.83;99031.25;5154714;27;20684;-92
2022/05/17 09:54:50;;;;;;;2.92;2.10;;;;;;;34.00;30.57;99026.44;5155875;27;20200;-93
2022/05/17 09:57:24;;;;;;;2.97;1.83;;;;;;;34.07;30.55;99024.47;5137361;27;20178;-93
2022/05/17 09:59:55;;;;;;;2.92;1.80;;;;;;;34.19;28.39;99028.06;5155307;27;20230;-93
2022/05/17 10:02:33;;;;;;;3.03;1.50;;;;;;;33.82;28.09;99021.09;5137045;27;20198;-91
2022/05/17 10:05:09;;;;;;;4.60;1.88;;;;;;;33.16;28.27;99016.53;5155596;27;20568;-91
2022/05/17 10:07:35;;;;;;;3.72;1.90;;;;;;;33.22;31.22;99010.22;5157645;27;20218;-90
2022/05/17 10:10:22;;;;;;;3.70;2.00;;;;;;;33.57;29.08;99001.41;5142034;27;20177;-93
2022/05/17 10:12:51;;;;;;;2.67;1.80;;;;;;;33.65;28.61;98995.63;5142200;27;20323;-93
2022/05/17 10:15:19;;;;;;;3.60;1.60;;;;;;;34.01;28.50;99006.34;5159214;27;20199;-93
2022/05/17 10:17:55;;;;;;;2.03;1.13;;;;;;;34.13;28.92;99001.78;5160071;27;20174;-91
2022/05/17 10:20:26;;;;;;;2.78;1.63;;;;;;;34.34;27.17;98997.66;5141837;27;20323;-92
2022/05/17 10:23:01;;;;;;;4.93;1.83;;;;;;;34.44;26.53;98992.44;5141593;27;20173;-92
2022/05/17 10:25:41;;;;;;;3.90;1.90;;;;;;;34.62;26.37;98995.06;5159581;27;20603;-91
2022/05/17 10:28:10;;;;;;;7.70;1.83;;;;;;;34.75;25.98;98994.00;5159290;27;20208;-91
2022/05/17 10:30:50;;;;;;;3.95;1.60;;;;;;;34.77;26.35;98989.13;5158837;27;20201;-92
2022/05/17 10:33:51;;;;;;;2.97;1.50;;;;;;;35.04;25.50;98979.34;5140746;27;20176;-93
2022/05/17 10:36:29;;;;;;;4.45;2.13;;;;;;;35.12;24.78;98979.00;5088557;27;20190;-91
2022/05/17 10:39:30;;;;;;;3.00;1.85;;;;;;;35.14;24.18;98971.41;5159569;27;20165;-92
2022/05/17 10:41:56;;;;;;;3.00;1.80;;;;;;;35.01;25.95;98969.75;5114971;27;20186;-91
2022/05/17 10:44:22;;;;;;;2.45;1.33;;;;;;;34.81;26.81;98973.94;5139482;27;20226;-92
2022/05/17 10:46:56;;;;;;;4.63;1.75;;;;;;;34.92;24.77;98967.66;5138822;27;20210;-93
2022/05/17 10:49:30;;;;;;;3.92;1.67;;;;;;;35.06;24.89;98971.81;5138884;27;20217;-92
2022/05/17 10:52:02;;;;;;;2.38;1.10;;;;;;;35.25;24.96;98967.00;5157058;27;20158;-92
2022/05/17 10:54:57;;;;;;;1.75;1.20;;;;;;;35.19;24.36;98964.16;5156879;27;20167;-92
2022/05/17 10:57:41;;;;;;;1.73;1.02;;;;;;;35.25;23.46;98956.91;5138861;27;20174;-92
2022/05/17 11:00:14;;;;;;;3.58;1.65;;;;;;;35.26;24.68;98946.81;5139806;27;20621;-92
2022/05/17 11:03:21;;;;;;;3.55;1.67;;;;;;;35.12;24.70;98952.56;5158749;27;20186;-91
2022/05/17 11:06:05;;;;;;;3.53;1.27;;;;;;;35.35;25.78;98934.47;5147813;27;20203;-91
2022/05/17 11:08:54;;;;;;;3.75;1.20;;;;;;;35.67;23.70;98946.50;5158134;27;20744;-92
2022/05/17 11:11:40;;;;;;;3.22;1.42;;;;;;;35.62;24.72;98939.06;5158401;27;20206;-92
2022/05/17 11:14:49;;;;;;;2.90;1.67;;;;;;;35.96;26.05;98930.88;5158416;27;20165;-92
2022/05/17 11:18:05;;;;;;;3.38;1.42;;;;;;;35.35;24.96;98935.31;5130534;27;20621;-89
2022/05/17 11:20:40;;;;;;;4.45;1.95;;;;;;;35.31;27.96;98927.84;5057711;28;20575;-92
2022/05/17 11:23:35;;;;;;;4.25;2.28;;;;;;;35.18;25.94;98934.41;5146841;27;20600;-90
2022/05/17 11:26:18;;;;;;;4.18;2.00;;;;;;;35.29;26.38;98919.09;5139581;27;20208;-92
2022/05/17 11:29:04;;;;;;;2.95;1.60;;;;;;;35.49;25.77;98920.28;5158303;27;20246;-93
2022/05/17 11:31:29;;;;;;;3.97;1.75;;;;;;;35.47;25.57;98916.13;5140461;27;20166;-92
2022/05/17 11:34:26;;;;;;;5.80;1.88;;;;;;;35.54;26.05;98919.56;5139425;27;20502;-93
2022/05/17 11:36:59;;;;;;;3.47;1.70;;;;;;;35.82;24.29;98913.22;5157874;27;20163;-92
2022/05/17 11:39:31;;;;;;;3.17;1.75;;;;;;;35.88;25.94;98902.13;5139569;27;20174;-92
2022/05/17 11:42:09;;;;;;;10.40;1.92;;;;;;;35.65;26.69;98897.69;5157621;27;20556;-93
2022/05/17 11:45:16;;;;;;;7.13;1.65;;;;;;;35.31;26.99;98892.41;5139521;27;20651;-93
2022/05/17 11:47:42;;;;;;;5.40;2.00;;;;;;;35.57;25.87;98889.91;5152616;27;20228;-93
2022/05/17 11:50:16;;;;;;;3.15;1.42;;;;;;;35.67;25.46;98890.06;5160429;27;20178;-94
2022/05/17 11:52:55;;;;;;;3.15;1.90;;;;;;;36.16;25.45;98888.41;5139738;27;20185;-93
2022/05/17 11:55:26;;;;;;;4.82;1.80;;;;;;;36.49;25.39;98882.06;5139267;27;20170;-93